createdAt,value
2017-12-20T00:02:20.158Z,2.90
2017-12-20T00:04:49.306Z,2.90
2017-12-20T00:07:18.577Z,2.90
2017-12-20T00:09:48.432Z,2.80
2017-12-20T00:12:17.604Z,2.80
2017-12-20T00:14:46.705Z,2.80
2017-12-20T00:17:15.733Z,2.80
2017-12-20T00:19:45.592Z,2.70
2017-12-20T00:22:15.677Z,2.70
2017-12-20T00:24:44.719Z,2.70
2017-12-20T00:27:13.831Z,2.70
2017-12-20T00:29:43.643Z,2.70
2017-12-20T00:32:12.798Z,2.70
2017-12-20T00:34:41.894Z,2.70
2017-12-20T00:37:10.983Z,2.70
2017-12-20T00:39:40.308Z,2.70
2017-12-20T00:42:10.312Z,2.70
2017-12-20T00:44:39.464Z,2.60
2017-12-20T00:47:09.339Z,2.60
2017-12-20T00:49:38.475Z,2.60
2017-12-20T00:52:08.365Z,2.60
2017-12-20T00:54:37.440Z,2.60
2017-12-20T00:57:08.031Z,2.60
2017-12-20T00:59:37.172Z,2.60
2017-12-20T01:02:06.817Z,2.60
2017-12-20T01:04:36.614Z,2.60
2017-12-20T01:07:05.753Z,2.60
2017-12-20T01:09:34.825Z,2.60
2017-12-20T01:12:04.616Z,2.60
2017-12-20T01:14:33.712Z,2.60
2017-12-20T01:17:02.818Z,2.60
2017-12-20T01:19:31.997Z,2.60
2017-12-20T01:22:00.975Z,2.60
2017-12-20T01:24:30.776Z,2.60
2017-12-20T01:27:00.551Z,2.70
2017-12-20T01:29:29.552Z,2.70
2017-12-20T01:31:58.481Z,2.70
2017-12-20T01:34:28.229Z,2.70
2017-12-20T01:36:57.157Z,2.70
2017-12-20T01:39:26.088Z,2.80
2017-12-20T01:41:55.107Z,2.80
2017-12-20T01:44:24.104Z,2.70
2017-12-20T01:46:53.047Z,2.70
2017-12-20T01:49:22.800Z,2.70
2017-12-20T01:51:51.760Z,2.70
2017-12-20T01:54:21.509Z,2.80
2017-12-20T01:56:50.622Z,2.70
2017-12-20T01:59:19.601Z,2.80
2017-12-20T02:01:48.557Z,2.80
2017-12-20T02:04:17.527Z,2.70
2017-12-20T02:06:46.535Z,2.70
2017-12-20T02:09:16.245Z,2.70
2017-12-20T02:11:46.020Z,2.70
2017-12-20T02:14:15.041Z,2.70
2017-12-20T02:16:44.816Z,2.70
2017-12-20T02:19:13.905Z,2.70
2017-12-20T02:21:42.899Z,2.70
2017-12-20T02:24:11.991Z,2.70
2017-12-20T02:26:43.851Z,2.70
2017-12-20T02:29:12.920Z,2.60
2017-12-20T02:31:42.009Z,2.70
2017-12-20T02:34:11.099Z,2.70
2017-12-20T02:36:40.196Z,2.70
2017-12-20T02:39:10.136Z,2.70
2017-12-20T02:41:39.423Z,2.70
2017-12-20T02:44:08.555Z,2.70
2017-12-20T02:46:37.544Z,2.70
2017-12-20T02:49:06.604Z,2.70
2017-12-20T02:51:35.797Z,2.70
2017-12-20T02:54:04.848Z,2.70
2017-12-20T02:56:34.698Z,2.70
2017-12-20T02:59:03.776Z,2.70
2017-12-20T03:01:33.531Z,2.70
2017-12-20T03:04:02.543Z,2.70
2017-12-20T03:06:31.570Z,2.70
2017-12-20T03:09:01.433Z,2.60
2017-12-20T03:11:30.564Z,2.60
2017-12-20T03:13:59.659Z,2.70
2017-12-20T03:16:28.674Z,2.70
2017-12-20T03:18:58.397Z,2.70
2017-12-20T03:21:28.168Z,2.70
2017-12-20T03:23:57.921Z,2.70
2017-12-20T03:26:26.904Z,2.60
2017-12-20T03:28:55.849Z,2.70
2017-12-20T03:31:24.857Z,2.70
2017-12-20T03:33:54.793Z,2.70
2017-12-20T03:36:24.520Z,2.70
2017-12-20T03:42:26.135Z,2.70
2017-12-20T03:44:55.124Z,2.60
2017-12-20T03:47:24.108Z,2.70
2017-12-20T03:49:53.089Z,2.70
2017-12-20T03:52:22.153Z,2.60
2017-12-20T03:54:51.977Z,2.70
2017-12-20T03:57:20.942Z,2.60
2017-12-20T03:59:49.943Z,2.60
2017-12-20T04:02:19.679Z,2.70
2017-12-20T04:04:48.703Z,2.60
2017-12-20T04:07:17.716Z,2.70
2017-12-20T04:09:46.665Z,2.70
2017-12-20T04:12:15.610Z,2.70
2017-12-20T04:14:44.616Z,2.70
2017-12-20T04:17:14.378Z,2.70
2017-12-20T04:19:43.344Z,2.70
2017-12-20T04:22:12.420Z,2.80
2017-12-20T04:24:42.180Z,2.80
2017-12-20T04:27:11.147Z,2.70
2017-12-20T04:29:40.113Z,2.80
2017-12-20T04:32:09.891Z,2.70
2017-12-20T04:34:38.836Z,2.70
2017-12-20T04:37:07.801Z,2.80
2017-12-20T04:39:37.518Z,2.80
2017-12-20T04:42:07.256Z,2.80
2017-12-20T04:44:36.317Z,2.70
2017-12-20T04:47:06.061Z,2.80
2017-12-20T04:49:35.020Z,2.70
2017-12-20T04:52:04.753Z,2.70
2017-12-20T04:54:34.020Z,2.70
2017-12-20T04:57:03.799Z,2.70
2017-12-20T04:59:32.761Z,2.60
2017-12-20T05:02:05.749Z,2.70
2017-12-20T05:04:34.666Z,2.70
2017-12-20T05:07:03.728Z,2.70
2017-12-20T05:10:35.377Z,2.70
2017-12-20T05:13:05.076Z,2.80
2017-12-20T05:15:34.837Z,2.80
2017-12-20T05:18:03.835Z,2.70
2017-12-20T05:20:32.763Z,2.80
2017-12-20T05:23:01.799Z,2.80
2017-12-20T05:25:30.774Z,2.80
2017-12-20T05:28:01.245Z,2.80
2017-12-20T05:30:30.188Z,2.70
2017-12-20T05:32:59.909Z,2.80
2017-12-20T05:35:28.842Z,2.80
2017-12-20T05:37:57.792Z,2.80
2017-12-20T05:40:26.772Z,2.80
2017-12-20T05:42:56.462Z,2.80
2017-12-20T05:45:25.416Z,2.70
2017-12-20T05:47:54.509Z,2.70
2017-12-20T05:50:23.708Z,2.80
2017-12-20T05:52:52.720Z,2.70
2017-12-20T05:55:22.005Z,2.80
2017-12-20T05:57:51.019Z,2.80
2017-12-20T06:00:20.097Z,2.80
2017-12-20T06:02:49.121Z,2.80
2017-12-20T06:05:18.208Z,2.80
2017-12-20T06:07:47.238Z,2.80
2017-12-20T06:10:16.206Z,2.80
2017-12-20T06:12:45.185Z,2.80
2017-12-20T06:15:14.151Z,2.80
2017-12-20T06:17:43.176Z,2.80
2017-12-20T06:20:12.160Z,2.80
2017-12-20T06:22:41.246Z,2.90
2017-12-20T06:25:11.123Z,2.90
2017-12-20T06:27:40.125Z,2.90
2017-12-20T06:30:09.112Z,2.90
2017-12-20T06:32:38.067Z,2.90
2017-12-20T06:35:07.948Z,2.90
2017-12-20T06:37:38.820Z,2.90
2017-12-20T06:40:08.578Z,2.90
2017-12-20T06:42:38.355Z,2.80
2017-12-20T06:45:08.182Z,2.80
2017-12-20T06:47:37.140Z,2.80
2017-12-20T06:50:06.905Z,2.90
2017-12-20T06:52:35.902Z,2.80
2017-12-20T06:55:06.206Z,2.80
2017-12-20T06:57:35.435Z,2.80
2017-12-20T07:00:10.242Z,2.90
2017-12-20T07:02:39.234Z,2.90
2017-12-20T07:05:08.312Z,2.90
2017-12-20T07:07:38.043Z,3.00
2017-12-20T07:10:07.800Z,3.00
2017-12-20T07:12:36.778Z,2.90
2017-12-20T07:15:05.783Z,3.00
2017-12-20T07:17:34.792Z,3.00
2017-12-20T07:20:04.596Z,3.00
2017-12-20T07:22:34.901Z,3.00
2017-12-20T07:25:08.718Z,3.00
2017-12-20T07:27:38.861Z,3.00
2017-12-20T07:30:17.683Z,2.90
2017-12-20T07:32:47.663Z,2.90
2017-12-20T07:35:17.536Z,3.00
2017-12-20T07:37:47.428Z,3.00
2017-12-20T07:40:17.628Z,3.10
2017-12-20T07:42:47.484Z,3.00
2017-12-20T07:45:16.770Z,3.00
2017-12-20T07:47:52.999Z,3.00
2017-12-20T07:50:22.321Z,3.00
2017-12-20T07:52:51.686Z,3.00
2017-12-20T07:55:21.567Z,3.00
2017-12-20T07:57:51.001Z,3.00
2017-12-20T08:00:20.051Z,3.10
2017-12-20T08:02:49.026Z,3.10
2017-12-20T08:05:18.777Z,3.00
2017-12-20T08:07:47.816Z,3.00
2017-12-20T08:10:17.579Z,3.10
2017-12-20T08:12:47.073Z,3.00
2017-12-20T08:15:16.052Z,3.00
2017-12-20T08:17:51.046Z,3.00
2017-12-20T08:20:20.066Z,3.00
2017-12-20T08:22:49.854Z,3.00
2017-12-20T08:25:18.939Z,3.00
2017-12-20T08:27:48.035Z,3.00
2017-12-20T08:30:17.908Z,3.10
2017-12-20T08:32:48.952Z,3.10
2017-12-20T08:35:18.064Z,3.00
2017-12-20T08:37:50.083Z,3.10
2017-12-20T08:40:19.997Z,3.10
2017-12-20T08:42:49.054Z,3.10
2017-12-20T08:45:18.086Z,3.20
2017-12-20T08:47:47.942Z,3.10
2017-12-20T08:50:16.908Z,3.10
2017-12-20T08:52:46.051Z,3.10
2017-12-20T08:55:15.781Z,3.10
2017-12-20T08:57:44.773Z,3.10
2017-12-20T09:00:13.905Z,3.10
2017-12-20T09:02:43.177Z,3.10
2017-12-20T09:05:12.967Z,3.10
2017-12-20T09:07:42.311Z,3.10
2017-12-20T09:10:11.685Z,3.10
2017-12-20T09:12:41.600Z,3.20
2017-12-20T09:15:11.392Z,3.20
2017-12-20T09:20:14.068Z,3.20
2017-12-20T09:22:43.065Z,3.20
2017-12-20T09:25:12.160Z,3.20
2017-12-20T09:27:41.245Z,3.20
2017-12-20T09:30:10.368Z,3.20
2017-12-20T09:32:40.279Z,3.20
2017-12-20T09:35:09.343Z,3.20
2017-12-20T09:37:38.400Z,3.20
2017-12-20T09:40:08.285Z,3.20
2017-12-20T09:42:37.820Z,3.20
2017-12-20T09:45:07.028Z,3.20
2017-12-20T09:47:36.074Z,3.20
2017-12-20T09:50:05.253Z,3.20
2017-12-20T09:52:34.267Z,3.20
2017-12-20T09:55:03.850Z,3.20
2017-12-20T09:57:32.911Z,3.30
2017-12-20T10:00:03.319Z,3.30
2017-12-20T10:02:48.302Z,3.40
2017-12-20T10:05:20.153Z,3.30
2017-12-20T10:07:53.438Z,3.40
2017-12-20T10:10:23.656Z,3.50
2017-12-20T10:12:53.556Z,3.50
2017-12-20T10:15:23.777Z,3.50
2017-12-20T10:17:52.915Z,3.50
2017-12-20T10:20:22.803Z,3.50
2017-12-20T10:22:59.483Z,3.60
2017-12-20T10:25:29.729Z,3.60
2017-12-20T10:27:59.644Z,3.70
2017-12-20T10:30:29.582Z,3.60
2017-12-20T10:32:58.589Z,3.80
2017-12-20T10:35:27.656Z,3.80
2017-12-20T10:37:56.905Z,3.80
2017-12-20T10:40:27.744Z,3.90
2017-12-20T10:42:57.667Z,3.80
2017-12-20T10:45:27.518Z,3.80
2017-12-20T10:47:56.647Z,3.70
2017-12-20T10:50:25.844Z,3.90
2017-12-20T10:52:54.928Z,4.00
2017-12-20T10:55:23.948Z,4.10
2017-12-20T10:57:53.073Z,4.20
2017-12-20T11:00:24.081Z,4.20
2017-12-20T11:02:59.147Z,4.10
2017-12-20T11:05:29.098Z,4.10
2017-12-20T11:07:58.228Z,4.00
2017-12-20T11:10:27.348Z,4.10
2017-12-20T11:12:57.202Z,4.20
2017-12-20T11:15:26.460Z,4.20
2017-12-20T11:17:56.338Z,4.10
2017-12-20T11:20:25.450Z,4.00
2017-12-20T11:22:55.351Z,4.00
2017-12-20T11:25:24.837Z,4.00
2017-12-20T11:27:53.939Z,3.90
2017-12-20T11:30:22.969Z,3.90
2017-12-20T11:32:52.045Z,3.80
2017-12-20T11:35:21.948Z,3.80
2017-12-20T11:37:51.401Z,3.70
2017-12-20T11:40:21.467Z,3.80
2017-12-20T11:42:50.523Z,3.80
2017-12-20T11:45:20.410Z,3.80
2017-12-20T11:47:50.453Z,3.80
2017-12-20T11:50:19.617Z,3.70
2017-12-20T11:52:48.789Z,3.80
2017-12-20T11:55:18.090Z,3.80
2017-12-20T11:57:47.824Z,3.80
2017-12-20T12:00:18.942Z,3.90
2017-12-20T12:02:48.974Z,3.90
2017-12-20T12:05:18.266Z,3.80
2017-12-20T12:07:47.374Z,3.90
2017-12-20T12:10:17.778Z,4.00
2017-12-20T12:12:47.649Z,4.10
2017-12-20T12:15:17.649Z,4.10
2017-12-20T12:17:47.480Z,4.10
2017-12-20T12:20:17.675Z,4.10
2017-12-20T12:22:46.893Z,4.10
2017-12-20T12:25:16.038Z,4.20
2017-12-20T12:27:45.888Z,4.20
2017-12-20T12:30:15.807Z,4.10
2017-12-20T12:32:46.243Z,4.20
2017-12-20T12:35:19.227Z,4.10
2017-12-20T12:37:49.067Z,4.10
2017-12-20T12:40:18.231Z,4.10
2017-12-20T12:42:48.196Z,4.10
2017-12-20T12:45:18.112Z,4.00
2017-12-20T12:47:55.611Z,4.00
2017-12-20T12:50:25.070Z,4.00
2017-12-20T12:52:54.249Z,3.90
2017-12-20T12:55:24.080Z,3.80
2017-12-20T12:57:54.848Z,3.90
2017-12-20T13:00:24.767Z,3.80
2017-12-20T13:02:55.150Z,3.80
2017-12-20T13:05:25.167Z,3.90
2017-12-20T13:07:57.833Z,3.80
2017-12-20T13:10:27.730Z,3.90
2017-12-20T13:12:57.805Z,3.80
2017-12-20T13:15:26.969Z,3.80
2017-12-20T13:18:03.204Z,3.90
2017-12-20T13:20:40.450Z,3.80
2017-12-20T13:23:09.914Z,3.90
2017-12-20T13:25:39.138Z,3.80
2017-12-20T13:28:11.491Z,3.80
2017-12-20T13:30:44.236Z,3.80
2017-12-20T13:33:23.752Z,3.80
2017-12-20T13:35:54.898Z,3.80
2017-12-20T13:38:24.831Z,3.90
2017-12-20T13:40:55.015Z,3.80
2017-12-20T13:43:25.264Z,3.80
2017-12-20T13:45:55.176Z,3.90
2017-12-20T13:48:25.085Z,3.90
2017-12-20T13:50:54.184Z,3.80
2017-12-20T13:53:27.840Z,3.90
2017-12-20T13:55:57.779Z,3.90
2017-12-20T13:58:36.230Z,3.90
2017-12-20T14:01:06.172Z,3.90
2017-12-20T14:03:45.649Z,3.80
2017-12-20T14:06:14.849Z,3.80
2017-12-20T14:08:44.643Z,3.80
2017-12-20T14:11:23.798Z,3.80
2017-12-20T14:13:53.356Z,3.70
2017-12-20T14:16:22.457Z,3.80
2017-12-20T14:18:57.883Z,3.70
2017-12-20T14:21:27.686Z,3.70
2017-12-20T14:23:56.882Z,3.60
2017-12-20T14:26:27.827Z,3.70
2017-12-20T14:28:56.929Z,3.70
2017-12-20T14:31:26.698Z,3.70
2017-12-20T14:33:55.760Z,3.60
2017-12-20T14:36:24.895Z,3.60
2017-12-20T14:38:53.975Z,3.60
2017-12-20T14:41:25.212Z,3.60
2017-12-20T14:43:56.563Z,3.70
2017-12-20T14:46:31.238Z,3.60
2017-12-20T14:49:01.047Z,3.60
2017-12-20T14:51:30.334Z,3.60
2017-12-20T14:53:59.691Z,3.60
2017-12-20T14:56:28.883Z,3.70
2017-12-20T14:58:58.001Z,3.70
2017-12-20T15:01:27.921Z,3.70
2017-12-20T15:03:57.115Z,3.60
2017-12-20T15:06:26.991Z,3.60
2017-12-20T15:08:56.898Z,3.60
2017-12-20T15:11:26.043Z,3.60
2017-12-20T15:13:55.206Z,3.60
2017-12-20T15:16:25.137Z,3.60
2017-12-20T15:18:54.286Z,3.60
2017-12-20T15:21:23.522Z,3.60
2017-12-20T15:23:53.341Z,3.60
2017-12-20T15:26:23.566Z,3.60
2017-12-20T15:28:52.743Z,3.60
2017-12-20T15:31:22.796Z,3.60
2017-12-20T15:33:52.704Z,3.60
2017-12-20T15:36:21.734Z,3.60
2017-12-20T15:38:50.935Z,3.70
2017-12-20T15:41:20.170Z,3.70
2017-12-20T15:43:49.983Z,3.70
2017-12-20T15:46:19.837Z,3.60
2017-12-20T15:48:48.858Z,3.60
2017-12-20T15:51:23.917Z,3.70
2017-12-20T15:53:53.215Z,3.60
2017-12-20T15:56:24.264Z,3.70
2017-12-20T15:58:54.192Z,3.70
2017-12-20T16:01:24.082Z,3.70
2017-12-20T16:03:54.016Z,3.60
2017-12-20T16:06:24.325Z,3.70
2017-12-20T16:08:54.212Z,3.80
2017-12-20T16:11:23.347Z,3.70
2017-12-20T16:13:52.550Z,3.70
2017-12-20T16:16:28.113Z,3.70
2017-12-20T16:18:57.228Z,3.70
2017-12-20T16:21:26.308Z,3.70
2017-12-20T16:24:05.209Z,3.70
2017-12-20T16:26:35.259Z,3.70
2017-12-20T16:29:05.010Z,3.60
2017-12-20T16:31:34.222Z,3.60
2017-12-20T16:34:04.232Z,3.70
2017-12-20T16:36:33.508Z,3.70
2017-12-20T16:39:02.790Z,3.70
2017-12-20T16:41:32.009Z,3.70
2017-12-20T16:44:01.958Z,3.70
2017-12-20T16:46:31.872Z,3.70
2017-12-20T16:49:01.772Z,3.70
2017-12-20T16:51:30.962Z,3.60
2017-12-20T16:54:00.819Z,3.60
2017-12-20T16:56:29.878Z,3.60
2017-12-20T16:58:58.866Z,3.70
2017-12-20T17:01:28.751Z,3.70
2017-12-20T17:03:58.743Z,3.70
2017-12-20T17:06:30.307Z,3.70
2017-12-20T17:09:06.593Z,3.70
2017-12-20T17:11:36.272Z,3.70
2017-12-20T17:14:05.388Z,3.70
2017-12-20T17:16:34.484Z,3.70
2017-12-20T17:19:03.698Z,3.70
2017-12-20T17:21:32.778Z,3.70
2017-12-20T17:24:01.823Z,3.70
2017-12-20T17:26:31.655Z,3.70
2017-12-20T17:29:01.629Z,3.70
2017-12-20T17:31:30.712Z,3.60
2017-12-20T17:33:59.792Z,3.70
2017-12-20T17:36:38.196Z,3.70
2017-12-20T17:39:07.314Z,3.70
2017-12-20T17:41:36.616Z,3.70
2017-12-20T17:44:05.757Z,3.80
2017-12-20T17:46:34.908Z,3.80
2017-12-20T17:49:04.097Z,3.80
2017-12-20T17:51:33.670Z,3.80
2017-12-20T17:54:02.764Z,3.80
2017-12-20T17:56:31.800Z,3.80
2017-12-20T17:59:00.848Z,3.80
2017-12-20T18:01:29.982Z,3.80
2017-12-20T18:03:59.798Z,3.80
2017-12-20T18:06:28.912Z,3.70
2017-12-20T18:08:58.135Z,3.80
2017-12-20T18:11:28.232Z,3.80
2017-12-20T18:13:57.312Z,3.80
2017-12-20T18:16:27.331Z,3.90
2017-12-20T18:18:56.540Z,3.90
2017-12-20T18:21:26.123Z,3.90
2017-12-20T18:23:55.973Z,3.90
2017-12-20T18:26:25.853Z,3.90
2017-12-20T18:28:54.964Z,3.80
2017-12-20T18:31:23.985Z,3.90
2017-12-20T18:33:53.778Z,3.90
2017-12-20T18:36:22.863Z,3.80
2017-12-20T18:38:52.623Z,3.80
2017-12-20T18:41:21.657Z,3.80
2017-12-20T18:43:50.799Z,3.80
2017-12-20T18:46:19.780Z,3.80
2017-12-20T18:48:49.619Z,3.70
2017-12-20T18:51:23.026Z,3.70
2017-12-20T18:53:52.059Z,3.80
2017-12-20T18:56:21.144Z,3.80
2017-12-20T18:58:50.361Z,3.80
2017-12-20T19:01:19.558Z,3.80
2017-12-20T19:03:48.667Z,3.80
2017-12-20T19:06:18.566Z,3.90
2017-12-20T19:08:47.782Z,3.80
2017-12-20T19:11:17.549Z,3.70
2017-12-20T19:13:51.337Z,3.70
2017-12-20T19:16:25.560Z,3.80
2017-12-20T19:18:54.566Z,3.70
2017-12-20T19:21:23.677Z,3.70
2017-12-20T19:23:53.468Z,3.80
2017-12-20T19:26:22.593Z,3.70
2017-12-20T19:28:51.592Z,3.80
2017-12-20T19:31:21.390Z,3.80
2017-12-20T19:33:52.078Z,3.80
2017-12-20T19:36:26.925Z,3.80
2017-12-20T19:38:56.132Z,3.80
2017-12-20T19:41:26.143Z,3.90
2017-12-20T19:43:55.146Z,3.80
2017-12-20T19:46:24.157Z,3.90
2017-12-20T19:48:53.235Z,3.90
2017-12-20T19:51:22.280Z,3.90
2017-12-20T19:53:51.502Z,3.90
2017-12-20T19:56:20.790Z,3.90
2017-12-20T19:58:50.785Z,3.90
2017-12-20T20:01:23.981Z,3.90
2017-12-20T20:03:53.084Z,3.90
2017-12-20T20:06:22.261Z,4.00
2017-12-20T20:08:52.179Z,3.90
2017-12-20T20:11:22.255Z,3.90
2017-12-20T20:13:51.670Z,3.90
2017-12-20T20:16:20.664Z,3.90
2017-12-20T20:18:51.416Z,3.90
2017-12-20T20:21:21.208Z,3.90
2017-12-20T20:23:50.386Z,3.90
2017-12-20T20:26:20.711Z,3.90
2017-12-20T20:28:49.803Z,4.00
2017-12-20T20:31:18.862Z,4.00
2017-12-20T20:33:47.917Z,4.00
2017-12-20T20:36:17.072Z,4.00
2017-12-20T20:38:46.110Z,4.00
2017-12-20T20:41:15.175Z,4.00
2017-12-20T20:43:44.172Z,3.90
2017-12-20T20:46:13.229Z,3.90
2017-12-20T20:48:42.252Z,3.90
2017-12-20T20:51:11.265Z,4.00
2017-12-20T20:53:41.058Z,3.90
2017-12-20T20:56:10.615Z,3.90
2017-12-20T20:58:40.675Z,3.90
2017-12-20T21:01:09.712Z,3.90
2017-12-20T21:03:38.806Z,3.90
2017-12-20T21:06:07.785Z,3.90
2017-12-20T21:08:36.778Z,3.90
2017-12-20T21:11:05.779Z,3.90
2017-12-20T21:13:34.766Z,3.90
2017-12-20T21:16:03.793Z,3.90
2017-12-20T21:18:38.828Z,3.80
2017-12-20T21:21:08.686Z,3.80
2017-12-20T21:23:37.751Z,3.80
2017-12-20T21:26:06.858Z,3.90
2017-12-20T21:28:35.894Z,3.90
2017-12-20T21:31:05.687Z,4.00
2017-12-20T21:33:34.746Z,4.00
2017-12-20T21:36:03.781Z,4.00
2017-12-20T21:38:32.800Z,4.00
2017-12-20T21:41:01.759Z,4.00
2017-12-20T21:43:31.069Z,4.00
2017-12-20T21:51:04.173Z,4.00
2017-12-20T21:53:33.142Z,4.10
2017-12-20T21:56:02.178Z,4.00
2017-12-20T21:58:31.418Z,4.00
2017-12-20T22:01:01.378Z,4.00
2017-12-20T22:03:31.291Z,4.10
2017-12-20T22:06:00.747Z,4.00
2017-12-20T22:08:30.537Z,4.10
2017-12-20T22:11:00.460Z,4.10
2017-12-20T22:13:29.636Z,4.10
2017-12-20T22:15:58.662Z,4.10
2017-12-20T22:18:28.585Z,4.10
2017-12-20T22:20:57.573Z,4.10
2017-12-20T22:23:27.340Z,4.20
2017-12-20T22:25:56.342Z,4.10
2017-12-20T22:28:25.389Z,4.10
2017-12-20T22:30:54.398Z,4.10
2017-12-20T22:33:23.377Z,4.20
2017-12-20T22:35:52.425Z,4.20
2017-12-20T22:38:22.769Z,4.10
2017-12-20T22:40:52.511Z,4.10
2017-12-20T22:43:21.481Z,4.00
2017-12-20T22:45:51.363Z,4.10
2017-12-20T22:48:20.306Z,4.10
2017-12-20T22:52:08.536Z,4.10
2017-12-20T22:54:38.263Z,4.10
2017-12-20T22:57:07.315Z,4.10
2017-12-20T22:59:37.110Z,4.10
2017-12-20T23:02:06.118Z,4.10
2017-12-20T23:04:35.107Z,4.10
2017-12-20T23:07:04.100Z,4.10
2017-12-20T23:09:33.094Z,4.10
2017-12-20T23:12:02.079Z,4.10
2017-12-20T23:14:31.031Z,4.10
2017-12-20T23:17:00.032Z,4.10
2017-12-20T23:19:29.106Z,4.10
2017-12-20T23:21:58.114Z,4.10
2017-12-20T23:24:27.206Z,4.10
2017-12-20T23:26:57.000Z,4.10
2017-12-20T23:29:26.752Z,4.10
2017-12-20T23:31:55.718Z,4.10
2017-12-20T23:34:24.731Z,4.20
2017-12-20T23:36:53.707Z,4.10
2017-12-20T23:39:22.724Z,4.10
2017-12-20T23:41:51.643Z,4.10
2017-12-20T23:44:20.605Z,4.20
2017-12-20T23:46:49.715Z,4.20
2017-12-20T23:49:18.741Z,4.20
2017-12-20T23:51:51.368Z,4.20
2017-12-20T23:54:20.337Z,4.10
2017-12-20T23:56:49.318Z,4.10
2017-12-20T23:59:19.026Z,4.10
